createdAt,value
2019-04-21T00:00:11.819Z,7.20
2019-04-21T00:02:44.107Z,7.70
2019-04-21T00:05:54.544Z,7.77
2019-04-21T00:08:33.424Z,7.40
2019-04-21T00:11:01.140Z,7.20
2019-04-21T00:13:19.001Z,7.70
2019-04-21T00:15:44.194Z,7.50
2019-04-21T00:18:19.104Z,7.97
2019-04-21T00:20:53.072Z,8.47
2019-04-21T00:23:39.715Z,8.00
2019-04-21T00:26:01.919Z,7.83
2019-04-21T00:28:47.483Z,8.50
2019-04-21T00:31:12.694Z,7.90
2019-04-21T00:33:30.073Z,8.80
2019-04-21T00:36:02.070Z,8.67
2019-04-21T00:39:03.138Z,8.17
2019-04-21T00:41:21.982Z,8.17
2019-04-21T00:43:42.617Z,7.33
2019-04-21T00:46:08.489Z,7.70
2019-04-21T00:48:50.051Z,8.13
2019-04-21T00:51:36.074Z,7.40
2019-04-21T00:54:04.442Z,7.17
2019-04-21T00:56:30.118Z,7.93
2019-04-21T00:58:59.741Z,7.23
2019-04-21T01:01:26.745Z,7.57
2019-04-21T01:04:05.317Z,7.33
2019-04-21T01:06:37.611Z,7.40
2019-04-21T01:09:00.956Z,7.13
2019-04-21T01:11:31.517Z,8.00
2019-04-21T01:14:05.217Z,7.07
2019-04-21T01:16:44.044Z,8.73
2019-04-21T01:19:05.049Z,7.87
2019-04-21T01:21:15.809Z,7.13
2019-04-21T01:23:44.763Z,7.67
2019-04-21T01:26:29.049Z,7.90
2019-04-21T01:29:01.504Z,7.70
2019-04-21T01:31:34.927Z,8.90
2019-04-21T01:34:08.590Z,9.00
2019-04-21T01:36:36.998Z,7.40
2019-04-21T01:39:14.913Z,8.70
2019-04-21T01:41:45.038Z,8.03
2019-04-21T01:44:14.324Z,8.00
2019-04-21T01:46:40.765Z,8.80
2019-04-21T01:49:05.535Z,8.33
2019-04-21T01:51:58.003Z,8.50
2019-04-21T01:54:31.000Z,8.30
2019-04-21T01:57:02.056Z,10.23
2019-04-21T01:59:30.635Z,7.70
2019-04-21T02:02:06.654Z,8.60
2019-04-21T02:04:41.748Z,8.63
2019-04-21T02:07:10.273Z,10.20
2019-04-21T02:10:02.012Z,8.43
2019-04-21T02:12:13.413Z,8.30
2019-04-21T02:14:50.336Z,9.20
2019-04-21T02:17:13.219Z,9.47
2019-04-21T02:19:36.079Z,8.87
2019-04-21T02:22:12.594Z,9.30
2019-04-21T02:24:49.919Z,7.80
2019-04-21T02:27:19.081Z,8.20
2019-04-21T02:29:53.246Z,8.50
2019-04-21T02:35:24.258Z,8.77
2019-04-21T02:40:05.095Z,9.20
2019-04-21T02:42:37.891Z,8.33
2019-04-21T02:50:16.225Z,9.37
2019-04-21T02:52:43.877Z,8.90
2019-04-21T02:57:43.886Z,9.07
2019-04-21T03:00:13.869Z,9.30
2019-04-21T03:03:16.082Z,9.23
2019-04-21T03:06:10.549Z,8.47
2019-04-21T03:08:42.753Z,8.40
2019-04-21T03:11:09.002Z,9.30
2019-04-21T03:13:40.997Z,9.03
2019-04-21T03:16:17.099Z,9.27
2019-04-21T03:23:46.826Z,8.30
2019-04-21T03:26:19.439Z,9.77
2019-04-21T03:28:42.246Z,9.20
2019-04-21T03:32:01.137Z,9.73
2019-04-21T03:36:43.820Z,8.50
2019-04-21T03:38:47.393Z,8.70
2019-04-21T03:41:38.022Z,8.70
2019-04-21T03:43:54.776Z,8.50
2019-04-21T03:46:23.124Z,8.83
2019-04-21T03:48:51.743Z,8.97
2019-04-21T03:51:31.436Z,9.77
2019-04-21T03:53:55.847Z,9.07
2019-04-21T03:56:44.404Z,8.80
2019-04-21T03:58:59.848Z,9.40
2019-04-21T04:01:51.006Z,8.77
2019-04-21T04:07:33.815Z,9.47
2019-04-21T04:10:02.922Z,8.93
2019-04-21T04:12:26.295Z,9.60
2019-04-21T04:17:26.179Z,8.90
2019-04-21T04:20:22.228Z,8.70
2019-04-21T04:25:04.990Z,9.20
2019-04-21T04:32:36.805Z,8.70
2019-04-21T04:40:13.411Z,8.73
2019-04-21T04:43:09.829Z,8.60
2019-04-21T04:48:09.179Z,8.90
2019-04-21T04:50:43.326Z,9.70
2019-04-21T04:55:43.431Z,8.70
2019-04-21T04:58:07.524Z,9.40
2019-04-21T05:03:11.749Z,8.83
2019-04-21T05:06:37.205Z,8.87
2019-04-21T05:14:02.899Z,8.50
2019-04-21T05:19:10.572Z,8.03
2019-04-21T05:23:51.037Z,10.63
2019-04-21T05:26:14.969Z,9.97
2019-04-21T05:28:44.694Z,10.93
2019-04-21T05:31:46.317Z,9.53
2019-04-21T05:34:18.486Z,10.37
2019-04-21T05:37:01.381Z,9.60
2019-04-21T05:39:53.527Z,10.13
2019-04-21T05:42:15.316Z,11.37
2019-04-21T05:45:09.146Z,10.60
2019-04-21T05:47:39.770Z,10.40
2019-04-21T05:50:06.423Z,10.07
2019-04-21T05:52:44.923Z,11.33
2019-04-21T05:55:33.414Z,11.60
2019-04-21T05:57:58.305Z,11.17
2019-04-21T06:03:06.998Z,10.57
2019-04-21T06:05:44.594Z,11.27
2019-04-21T06:08:08.146Z,9.80
2019-04-21T06:10:43.669Z,11.27
2019-04-21T06:13:12.892Z,10.87
2019-04-21T06:15:46.934Z,10.23
2019-04-21T06:18:13.843Z,10.47
2019-04-21T06:20:44.539Z,11.43
2019-04-21T06:23:11.517Z,11.17
2019-04-21T06:25:54.632Z,10.70
2019-04-21T06:28:13.732Z,10.33
2019-04-21T06:30:50.699Z,10.27
2019-04-21T06:33:19.634Z,10.30
2019-04-21T06:38:54.307Z,9.57
2019-04-21T06:41:21.065Z,9.70
2019-04-21T06:43:59.951Z,10.47
2019-04-21T06:46:25.853Z,10.63
2019-04-21T06:48:55.738Z,10.50
2019-04-21T06:51:27.473Z,10.20
2019-04-21T06:53:59.287Z,11.03
2019-04-21T06:56:30.955Z,10.20
2019-04-21T06:58:57.316Z,10.37
2019-04-21T07:01:30.880Z,10.63
2019-04-21T07:04:08.404Z,10.27
2019-04-21T07:06:33.791Z,9.83
2019-04-21T07:09:10.158Z,11.30
2019-04-21T07:11:27.106Z,11.73
2019-04-21T07:14:22.580Z,8.97
2019-04-21T07:16:39.115Z,10.53
2019-04-21T07:19:13.186Z,10.60
2019-04-21T07:21:33.866Z,10.47
2019-04-21T07:24:06.891Z,10.23
2019-04-21T07:26:39.173Z,10.50
2019-04-21T07:29:12.903Z,10.00
2019-04-21T07:31:47.632Z,9.80
2019-04-21T07:34:14.284Z,10.90
2019-04-21T07:36:52.396Z,9.93
2019-04-21T07:39:10.497Z,10.60
2019-04-21T07:41:40.963Z,9.13
2019-04-21T07:44:04.124Z,10.60
2019-04-21T07:46:37.187Z,9.60
2019-04-21T07:49:19.214Z,8.97
2019-04-21T07:52:01.413Z,10.00
2019-04-21T07:54:33.832Z,8.70
2019-04-21T07:56:44.228Z,9.50
2019-04-21T07:59:42.724Z,8.80
2019-04-21T08:02:02.548Z,9.83
2019-04-21T08:04:52.497Z,8.70
2019-04-21T08:06:55.682Z,7.80
2019-04-21T08:09:36.840Z,8.40
2019-04-21T08:11:57.425Z,8.97
2019-04-21T08:14:35.532Z,8.90
2019-04-21T08:17:04.913Z,8.63
2019-04-21T08:19:30.998Z,8.70
2019-04-21T08:24:35.094Z,8.17
2019-04-21T08:27:10.964Z,8.20
2019-04-21T08:29:41.626Z,8.50
2019-04-21T08:32:11.017Z,8.50
2019-04-21T08:34:42.935Z,8.47
2019-04-21T08:37:13.859Z,7.90
2019-04-21T08:39:51.029Z,7.73
2019-04-21T08:42:14.800Z,7.87
2019-04-21T08:44:46.794Z,7.83
2019-04-21T08:47:14.864Z,8.60
2019-04-21T08:49:41.123Z,7.37
2019-04-21T08:52:21.556Z,7.40
2019-04-21T08:54:52.137Z,7.90
2019-04-21T08:57:48.761Z,7.70
2019-04-21T09:00:20.107Z,7.73
2019-04-21T09:03:06.751Z,7.00
2019-04-21T09:05:37.346Z,7.30
2019-04-21T09:08:05.337Z,7.43
2019-04-21T09:10:35.462Z,7.30
2019-04-21T09:13:04.296Z,7.33
2019-04-21T09:15:39.646Z,6.40
2019-04-21T09:18:04.936Z,6.37
2019-04-21T09:20:47.342Z,6.20
2019-04-21T09:23:15.939Z,6.50
2019-04-21T09:25:49.575Z,6.43
2019-04-21T09:28:14.042Z,6.00
2019-04-21T09:30:52.203Z,6.10
2019-04-21T09:33:16.143Z,5.63
2019-04-21T09:35:50.084Z,5.93
2019-04-21T09:38:27.610Z,6.13
2019-04-21T09:40:50.791Z,5.37
2019-04-21T09:43:25.674Z,5.77
2019-04-21T09:45:49.625Z,5.53
2019-04-21T09:48:22.195Z,5.97
2019-04-21T09:50:50.469Z,5.47
2019-04-21T09:53:28.735Z,5.07
2019-04-21T09:55:56.728Z,5.33
2019-04-21T09:58:29.315Z,5.63
2019-04-21T10:01:01.448Z,5.30
2019-04-21T10:03:23.377Z,5.00
2019-04-21T10:05:52.651Z,5.37
2019-04-21T10:08:22.890Z,5.10
2019-04-21T10:10:51.794Z,5.10
2019-04-21T10:13:20.891Z,5.40
2019-04-21T10:16:03.158Z,4.97
2019-04-21T10:18:33.710Z,5.67
2019-04-21T10:21:03.315Z,5.00
2019-04-21T10:23:33.549Z,4.10
2019-04-21T10:26:02.782Z,4.77
2019-04-21T10:28:32.918Z,4.37
2019-04-21T10:31:02.783Z,4.37
2019-04-21T10:33:32.549Z,4.90
2019-04-21T10:36:02.819Z,5.27
2019-04-21T10:38:40.090Z,5.33
2019-04-21T10:41:03.472Z,4.73
2019-04-21T10:43:33.455Z,4.33
2019-04-21T10:46:03.011Z,6.10
2019-04-21T10:48:34.591Z,4.27
2019-04-21T10:51:03.264Z,4.70
2019-04-21T10:53:34.542Z,5.23
2019-04-21T10:56:15.415Z,5.27
2019-04-21T10:58:38.320Z,5.47
2019-04-21T11:01:18.981Z,6.43
2019-04-21T11:04:18.182Z,6.13
2019-04-21T11:06:44.208Z,6.00
2019-04-21T11:09:13.994Z,5.77
2019-04-21T11:11:46.391Z,6.23
2019-04-21T11:14:15.454Z,6.33
2019-04-21T11:16:47.487Z,6.33
2019-04-21T11:19:17.843Z,6.63
2019-04-21T11:21:47.536Z,6.30
2019-04-21T11:24:16.239Z,5.70
2019-04-21T11:26:47.647Z,5.90
2019-04-21T11:29:17.142Z,6.50
2019-04-21T11:31:47.320Z,6.80
2019-04-21T11:34:16.623Z,6.17
2019-04-21T11:36:46.021Z,5.60
2019-04-21T11:39:35.230Z,5.60
2019-04-21T11:41:55.558Z,5.57
2019-04-21T11:44:26.918Z,5.90
2019-04-21T11:46:56.514Z,5.87
2019-04-21T11:49:27.627Z,6.60
2019-04-21T11:51:57.067Z,5.60
2019-04-21T11:54:26.727Z,5.47
2019-04-21T11:56:56.899Z,6.03
2019-04-21T11:59:26.099Z,6.27
2019-04-21T12:01:55.388Z,5.40
2019-04-21T12:04:25.418Z,5.80
2019-04-21T12:06:55.981Z,5.70
2019-04-21T12:09:25.228Z,4.83
2019-04-21T12:11:54.332Z,5.20
2019-04-21T12:14:23.936Z,5.40
2019-04-21T12:16:53.583Z,5.37
2019-04-21T12:19:22.963Z,5.13
2019-04-21T12:22:01.179Z,5.43
2019-04-21T12:24:24.889Z,4.30
2019-04-21T12:26:55.889Z,5.10
2019-04-21T12:29:24.906Z,4.67
2019-04-21T12:32:20.127Z,4.60
2019-04-21T12:34:51.767Z,5.10
2019-04-21T12:37:20.231Z,4.93
2019-04-21T12:39:50.550Z,4.50
2019-04-21T12:42:20.755Z,4.80
2019-04-21T12:44:50.044Z,4.43
2019-04-21T12:47:19.660Z,5.67
2019-04-21T12:49:49.859Z,5.60
2019-04-21T12:52:19.851Z,5.43
2019-04-21T12:54:49.143Z,4.83
2019-04-21T12:57:19.229Z,5.20
2019-04-21T12:59:48.779Z,4.83
2019-04-21T13:02:17.903Z,4.30
2019-04-21T13:04:49.285Z,4.83
2019-04-21T13:07:17.844Z,4.93
2019-04-21T13:09:48.348Z,4.80
2019-04-21T13:12:19.292Z,4.87
2019-04-21T13:14:49.744Z,4.70
2019-04-21T13:17:19.514Z,4.60
2019-04-21T13:19:49.528Z,5.03
2019-04-21T13:22:18.618Z,5.20
2019-04-21T13:24:47.625Z,4.87
2019-04-21T13:27:17.769Z,4.97
2019-04-21T13:29:48.286Z,4.90
2019-04-21T13:32:18.622Z,5.00
2019-04-21T13:34:48.440Z,4.83
2019-04-21T13:37:19.390Z,4.73
2019-04-21T13:40:29.750Z,4.77
2019-04-21T13:42:47.737Z,4.70
2019-04-21T13:45:13.998Z,4.80
2019-04-21T13:47:43.728Z,4.70
2019-04-21T13:50:13.437Z,4.67
2019-04-21T13:52:42.942Z,4.13
2019-04-21T13:55:13.774Z,4.60
2019-04-21T13:57:44.377Z,4.50
2019-04-21T14:00:15.145Z,5.00
2019-04-21T14:02:44.881Z,4.70
2019-04-21T14:05:15.805Z,4.43
2019-04-21T14:07:46.156Z,4.40
2019-04-21T14:10:17.857Z,4.57
2019-04-21T14:12:48.793Z,4.23
2019-04-21T14:15:20.235Z,5.00
2019-04-21T14:17:50.892Z,4.97
2019-04-21T14:20:21.594Z,4.60
2019-04-21T14:22:51.931Z,5.03
2019-04-21T14:25:21.646Z,4.67
2019-04-21T14:27:52.595Z,4.80
2019-04-21T14:30:23.219Z,4.57
2019-04-21T14:32:54.075Z,4.40
2019-04-21T14:35:25.032Z,4.70
2019-04-21T14:37:54.400Z,4.53
2019-04-21T14:40:27.277Z,4.77
2019-04-21T14:42:56.091Z,4.90
2019-04-21T14:45:54.728Z,4.77
2019-04-21T14:48:43.134Z,4.10
2019-04-21T14:51:29.259Z,4.47
2019-04-21T14:54:30.854Z,4.60
2019-04-21T14:57:00.929Z,4.60
2019-04-21T14:59:31.085Z,4.30
2019-04-21T15:02:00.087Z,4.00
2019-04-21T15:04:29.531Z,4.30
2019-04-21T15:06:59.316Z,4.53
2019-04-21T15:09:29.359Z,4.57
2019-04-21T15:12:00.245Z,4.90
2019-04-21T15:14:29.828Z,4.30
2019-04-21T15:16:58.805Z,4.33
2019-04-21T15:19:30.875Z,4.27
2019-04-21T15:22:00.763Z,4.10
2019-04-21T15:24:30.135Z,3.70
2019-04-21T15:27:00.996Z,4.50
2019-04-21T15:29:30.839Z,5.07
2019-04-21T15:32:00.903Z,4.63
2019-04-21T15:34:29.978Z,5.00
2019-04-21T15:36:59.854Z,3.60
2019-04-21T15:39:29.832Z,3.80
2019-04-21T15:41:59.248Z,4.10
2019-04-21T15:44:30.511Z,3.73
2019-04-21T15:46:59.943Z,4.50
2019-04-21T15:49:56.943Z,4.23
2019-04-21T15:52:20.082Z,3.60
2019-04-21T15:54:50.384Z,4.40
2019-04-21T15:57:27.985Z,4.23
2019-04-21T16:00:20.713Z,3.70
2019-04-21T16:02:50.838Z,4.20
2019-04-21T16:05:20.461Z,4.00
2019-04-21T16:07:50.007Z,3.50
2019-04-21T16:10:31.161Z,4.10
2019-04-21T16:12:52.015Z,4.50
2019-04-21T16:15:22.775Z,4.17
2019-04-21T16:17:53.076Z,4.20
2019-04-21T16:20:24.051Z,3.67
2019-04-21T16:22:53.055Z,3.70
2019-04-21T16:25:23.177Z,4.70
2019-04-21T16:27:53.264Z,3.83
2019-04-21T16:30:23.867Z,3.90
2019-04-21T16:32:54.185Z,4.43
2019-04-21T16:35:24.927Z,4.13
2019-04-21T16:37:57.284Z,4.57
2019-04-21T16:40:25.571Z,4.20
2019-04-21T16:42:54.740Z,4.93
2019-04-21T16:45:25.262Z,4.47
2019-04-21T16:47:55.988Z,4.10
2019-04-21T16:50:27.929Z,4.40
2019-04-21T16:53:03.668Z,3.83
2019-04-21T16:55:48.871Z,4.47
2019-04-21T16:58:37.132Z,4.80
2019-04-21T17:01:13.944Z,4.40
2019-04-21T17:03:40.127Z,4.27
2019-04-21T17:06:11.051Z,4.77
2019-04-21T17:08:40.990Z,4.07
2019-04-21T17:11:18.814Z,4.60
2019-04-21T17:13:42.235Z,4.03
2019-04-21T17:16:40.801Z,4.40
2019-04-21T17:18:53.927Z,3.70
2019-04-21T17:21:15.231Z,4.07
2019-04-21T17:23:46.445Z,4.20
2019-04-21T17:26:17.076Z,4.17
2019-04-21T17:28:47.240Z,3.90
2019-04-21T17:31:16.569Z,4.00
2019-04-21T17:33:47.057Z,4.17
2019-04-21T17:36:16.855Z,3.80
2019-04-21T17:38:46.079Z,4.33
2019-04-21T17:41:25.936Z,3.80
2019-04-21T17:43:47.841Z,4.17
2019-04-21T17:46:23.046Z,3.87
2019-04-21T17:48:49.262Z,3.87
2019-04-21T17:51:41.240Z,4.20
2019-04-21T17:54:25.010Z,4.00
2019-04-21T17:57:12.479Z,4.30
2019-04-21T18:00:08.225Z,3.97
2019-04-21T18:02:38.582Z,3.63
2019-04-21T18:05:03.767Z,3.80
2019-04-21T18:07:46.738Z,3.73
2019-04-21T18:10:06.090Z,3.60
2019-04-21T18:12:33.136Z,3.73
2019-04-21T18:14:59.198Z,4.03
2019-04-21T18:17:20.599Z,4.00
2019-04-21T18:19:51.759Z,4.30
2019-04-21T18:22:45.501Z,3.57
2019-04-21T18:25:28.022Z,3.90
2019-04-21T18:27:47.367Z,3.37
2019-04-21T18:30:46.962Z,3.70
2019-04-21T18:33:23.554Z,4.60
2019-04-21T18:36:22.611Z,5.00
2019-04-21T18:39:10.191Z,4.10
2019-04-21T18:41:30.147Z,4.80
2019-04-21T18:44:28.734Z,5.43
2019-04-21T18:47:05.092Z,5.93
2019-04-21T18:49:21.586Z,4.63
2019-04-21T18:52:02.734Z,5.10
2019-04-21T18:54:45.834Z,4.40
2019-04-21T18:57:08.085Z,4.70
2019-04-21T18:59:37.577Z,4.50
2019-04-21T19:02:07.932Z,4.67
2019-04-21T19:04:35.347Z,4.57
2019-04-21T19:07:18.089Z,4.30
2019-04-21T19:10:10.008Z,4.70
2019-04-21T19:12:35.618Z,6.43
2019-04-21T19:14:55.666Z,5.03
2019-04-21T19:22:32.899Z,4.60
2019-04-21T19:25:05.445Z,3.70
2019-04-21T19:27:31.059Z,4.50
2019-04-21T19:32:33.560Z,5.00
2019-04-21T19:34:54.934Z,4.43
2019-04-21T19:37:24.406Z,5.40
2019-04-21T19:40:05.419Z,4.20
2019-04-21T19:42:36.683Z,5.33
2019-04-21T19:45:12.111Z,5.27
2019-04-21T19:47:46.046Z,4.40
2019-04-21T19:50:21.411Z,4.83
2019-04-21T19:52:39.860Z,4.70
2019-04-21T19:55:00.480Z,4.23
2019-04-21T19:57:31.326Z,4.30
2019-04-21T20:00:04.243Z,4.40
2019-04-21T20:02:32.247Z,4.47
2019-04-21T20:05:06.979Z,3.93
2019-04-21T20:07:49.363Z,3.70
2019-04-21T20:10:31.400Z,4.20
2019-04-21T20:12:53.730Z,4.30
2019-04-21T20:15:30.278Z,3.93
2019-04-21T20:17:54.005Z,3.47
2019-04-21T20:20:11.113Z,4.67
2019-04-21T20:22:44.104Z,5.40
2019-04-21T20:25:16.139Z,5.23
2019-04-21T20:27:52.903Z,6.30
2019-04-21T20:30:34.662Z,5.30
2019-04-21T20:33:19.731Z,6.07
2019-04-21T20:35:48.586Z,5.80
2019-04-21T20:38:04.671Z,5.83
2019-04-21T20:40:33.212Z,6.53
2019-04-21T20:43:11.446Z,6.00
2019-04-21T20:45:59.318Z,5.80
2019-04-21T20:47:59.947Z,5.60
2019-04-21T20:50:37.957Z,5.47
2019-04-21T20:53:14.594Z,5.60
2019-04-21T20:55:43.059Z,5.30
2019-04-21T20:58:06.841Z,5.03
2019-04-21T21:01:03.007Z,4.90
2019-04-21T21:03:18.131Z,4.27
2019-04-21T21:05:42.460Z,4.70
2019-04-21T21:08:26.241Z,4.47
2019-04-21T21:10:45.570Z,4.70
2019-04-21T21:13:26.595Z,4.93
2019-04-21T21:16:05.796Z,4.20
2019-04-21T21:18:52.292Z,4.37
2019-04-21T21:20:54.097Z,4.40
2019-04-21T21:23:20.371Z,4.37
2019-04-21T21:25:54.531Z,3.37
2019-04-21T21:28:30.931Z,4.23
2019-04-21T21:30:55.819Z,4.00
2019-04-21T21:33:25.645Z,4.07
2019-04-21T21:35:56.631Z,4.20
2019-04-21T21:38:31.485Z,4.10
2019-04-21T21:40:57.026Z,4.17
2019-04-21T21:43:19.871Z,4.60
2019-04-21T21:45:53.579Z,4.77
2019-04-21T21:48:36.653Z,3.90
2019-04-21T21:51:03.573Z,3.53
2019-04-21T21:53:23.770Z,4.43
2019-04-21T21:55:50.984Z,4.00
2019-04-21T21:58:27.457Z,4.30
2019-04-21T22:00:58.502Z,5.00
2019-04-21T22:03:31.865Z,3.80
2019-04-21T22:06:01.916Z,4.87
2019-04-21T22:08:28.284Z,4.87
2019-04-21T22:10:57.446Z,3.83
2019-04-21T22:13:37.624Z,4.10
2019-04-21T22:16:03.860Z,4.27
2019-04-21T22:18:43.142Z,4.23
2019-04-21T22:21:14.289Z,4.13
2019-04-21T22:23:39.922Z,3.73
2019-04-21T22:26:03.155Z,4.53
2019-04-21T22:28:33.783Z,4.30
2019-04-21T22:31:08.156Z,4.07
2019-04-21T22:33:44.937Z,4.23
2019-04-21T22:36:22.014Z,4.60
2019-04-21T22:38:47.636Z,4.90
2019-04-21T22:41:21.012Z,4.27
2019-04-21T22:43:43.760Z,4.07
2019-04-21T22:46:11.624Z,4.77
2019-04-21T22:48:40.930Z,5.10
2019-04-21T22:51:20.469Z,5.10
2019-04-21T22:53:48.295Z,4.77
2019-04-21T22:56:18.542Z,4.87
2019-04-21T22:58:46.562Z,4.90
2019-04-21T23:01:17.766Z,4.23
2019-04-21T23:03:51.113Z,5.60
2019-04-21T23:06:21.992Z,5.27
2019-04-21T23:08:49.476Z,5.27
2019-04-21T23:11:19.708Z,5.50
2019-04-21T23:13:53.789Z,5.20
2019-04-21T23:16:26.070Z,6.00
2019-04-21T23:19:11.428Z,5.77
2019-04-21T23:21:42.626Z,5.43
2019-04-21T23:24:11.561Z,5.83
2019-04-21T23:26:39.414Z,5.50
2019-04-21T23:29:14.184Z,5.57
2019-04-21T23:31:48.318Z,6.70
2019-04-21T23:33:57.940Z,5.60
2019-04-21T23:36:30.109Z,5.43
2019-04-21T23:38:58.634Z,5.23
2019-04-21T23:41:37.107Z,5.83
2019-04-21T23:44:05.888Z,5.63
2019-04-21T23:46:33.424Z,5.60
2019-04-21T23:49:17.935Z,6.30
2019-04-21T23:51:43.461Z,6.17
2019-04-21T23:54:02.929Z,5.40
2019-04-21T23:56:35.815Z,6.47
2019-04-21T23:59:06.725Z,5.33
